sensor_id;sensor_type;location;lat;lon;timestamp;pressure;altitude;pressure_sealevel;temperature;humidity
7918;BME280;4004;42.624;23.386;2022-10-26T00:00:42;94614.88;;;15.89;76.71
7918;BME280;4004;42.624;23.386;2022-10-26T00:03:09;94607.16;;;15.94;76.86
7918;BME280;4004;42.624;23.386;2022-10-26T00:05:36;94607.56;;;16.00;76.30
7918;BME280;4004;42.624;23.386;2022-10-26T00:08:03;94612.22;;;16.00;76.23
7918;BME280;4004;42.624;23.386;2022-10-26T00:10:30;94598.22;;;15.90;76.66
7918;BME280;4004;42.624;23.386;2022-10-26T00:12:59;94595.53;;;15.90;77.04
7918;BME280;4004;42.624;23.386;2022-10-26T00:15:28;94597.06;;;15.88;76.42
7918;BME280;4004;42.624;23.386;2022-10-26T00:17:54;94610.56;;;15.84;76.89
7918;BME280;4004;42.624;23.386;2022-10-26T00:20:21;94603.22;;;15.85;76.88
7918;BME280;4004;42.624;23.386;2022-10-26T00:22:48;94603.59;;;15.83;76.93
7918;BME280;4004;42.624;23.386;2022-10-26T00:25:15;94606.25;;;15.76;77.36
7918;BME280;4004;42.624;23.386;2022-10-26T00:27:42;94598.88;;;15.73;77.54
7918;BME280;4004;42.624;23.386;2022-10-26T00:30:09;94608.59;;;15.74;77.40
7918;BME280;4004;42.624;23.386;2022-10-26T00:32:37;94613.53;;;15.68;77.71
7918;BME280;4004;42.624;23.386;2022-10-26T00:35:04;94609.66;;;15.69;77.39
7918;BME280;4004;42.624;23.386;2022-10-26T00:37:31;94604.19;;;15.62;77.80
7918;BME280;4004;42.624;23.386;2022-10-26T00:39:57;94606.09;;;15.58;77.81
7918;BME280;4004;42.624;23.386;2022-10-26T00:42:24;94596.00;;;15.55;78.12
7918;BME280;4004;42.624;23.386;2022-10-26T00:44:59;94595.28;;;15.62;77.45
7918;BME280;4004;42.624;23.386;2022-10-26T00:47:32;94594.47;;;15.58;77.56
7918;BME280;4004;42.624;23.386;2022-10-26T00:50:05;94603.00;;;15.60;77.49
7918;BME280;4004;42.624;23.386;2022-10-26T00:52:33;94594.09;;;15.59;77.89
7918;BME280;4004;42.624;23.386;2022-10-26T00:55:00;94603.78;;;15.60;77.40
7918;BME280;4004;42.624;23.386;2022-10-26T00:57:27;94590.94;;;15.53;78.00
7918;BME280;4004;42.624;23.386;2022-10-26T00:59:55;94598.00;;;15.62;77.50
7918;BME280;4004;42.624;23.386;2022-10-26T01:02:24;94597.09;;;15.47;77.95
7918;BME280;4004;42.624;23.386;2022-10-26T01:04:51;94592.53;;;15.54;77.58
7918;BME280;4004;42.624;23.386;2022-10-26T01:07:20;94594.88;;;15.60;77.01
7918;BME280;4004;42.624;23.386;2022-10-26T01:09:47;94595.66;;;15.60;76.94
7918;BME280;4004;42.624;23.386;2022-10-26T01:12:14;94589.81;;;15.58;76.78
7918;BME280;4004;42.624;23.386;2022-10-26T01:14:41;94595.69;;;15.64;76.64
7918;BME280;4004;42.624;23.386;2022-10-26T01:17:19;94598.34;;;15.57;77.29
7918;BME280;4004;42.624;23.386;2022-10-26T01:20:18;94598.31;;;15.53;77.36
7918;BME280;4004;42.624;23.386;2022-10-26T01:22:53;94593.97;;;15.45;78.02
7918;BME280;4004;42.624;23.386;2022-10-26T01:25:37;94600.59;;;15.51;77.96
7918;BME280;4004;42.624;23.386;2022-10-26T01:28:14;94595.53;;;15.46;78.14
7918;BME280;4004;42.624;23.386;2022-10-26T01:30:46;94588.53;;;15.41;78.33
7918;BME280;4004;42.624;23.386;2022-10-26T01:33:28;94599.03;;;15.46;78.26
7918;BME280;4004;42.624;23.386;2022-10-26T01:36:02;94587.31;;;15.35;78.46
7918;BME280;4004;42.624;23.386;2022-10-26T01:38:34;94595.38;;;15.28;78.53
7918;BME280;4004;42.624;23.386;2022-10-26T01:41:11;94595.72;;;15.23;78.66
7918;BME280;4004;42.624;23.386;2022-10-26T01:43:41;94600.00;;;15.24;78.92
7918;BME280;4004;42.624;23.386;2022-10-26T01:46:11;94581.94;;;14.98;78.64
7918;BME280;4004;42.624;23.386;2022-10-26T01:48:40;94591.00;;;14.75;79.42
7918;BME280;4004;42.624;23.386;2022-10-26T01:51:08;94584.88;;;14.51;81.37
7918;BME280;4004;42.624;23.386;2022-10-26T01:53:42;94582.09;;;14.44;81.68
7918;BME280;4004;42.624;23.386;2022-10-26T01:56:13;94592.78;;;14.34;82.90
7918;BME280;4004;42.624;23.386;2022-10-26T01:58:57;94586.19;;;14.31;83.79
7918;BME280;4004;42.624;23.386;2022-10-26T02:01:43;94582.28;;;14.28;83.46
7918;BME280;4004;42.624;23.386;2022-10-26T02:04:24;94585.13;;;14.09;83.72
7918;BME280;4004;42.624;23.386;2022-10-26T02:07:01;94577.75;;;14.06;84.09
7918;BME280;4004;42.624;23.386;2022-10-26T02:09:34;94585.09;;;14.05;84.75
7918;BME280;4004;42.624;23.386;2022-10-26T02:12:08;94582.31;;;14.02;85.25
7918;BME280;4004;42.624;23.386;2022-10-26T02:14:44;94585.09;;;14.05;85.49
7918;BME280;4004;42.624;23.386;2022-10-26T02:17:19;94585.78;;;13.99;85.72
7918;BME280;4004;42.624;23.386;2022-10-26T02:19:51;94600.78;;;13.70;85.93
7918;BME280;4004;42.624;23.386;2022-10-26T02:22:23;94604.16;;;13.63;85.01
7918;BME280;4004;42.624;23.386;2022-10-26T02:24:52;94608.56;;;13.48;85.64
7918;BME280;4004;42.624;23.386;2022-10-26T02:27:21;94608.91;;;13.23;87.33
7918;BME280;4004;42.624;23.386;2022-10-26T02:29:51;94606.47;;;12.95;95.09
7918;BME280;4004;42.624;23.386;2022-10-26T02:32:22;94596.91;;;12.78;100.00
7918;BME280;4004;42.624;23.386;2022-10-26T02:34:50;94603.88;;;12.79;100.00
7918;BME280;4004;42.624;23.386;2022-10-26T02:37:20;94603.06;;;12.98;100.00
7918;BME280;4004;42.624;23.386;2022-10-26T02:39:50;94609.25;;;12.79;100.00
7918;BME280;4004;42.624;23.386;2022-10-26T02:42:18;94614.09;;;12.70;100.00
7918;BME280;4004;42.624;23.386;2022-10-26T02:44:49;94607.13;;;12.69;100.00
7918;BME280;4004;42.624;23.386;2022-10-26T02:47:17;94597.50;;;12.68;100.00
7918;BME280;4004;42.624;23.386;2022-10-26T02:49:46;94607.34;;;12.60;100.00
7918;BME280;4004;42.624;23.386;2022-10-26T02:52:16;94607.00;;;12.62;100.00
7918;BME280;4004;42.624;23.386;2022-10-26T02:54:52;94595.00;;;12.59;100.00
7918;BME280;4004;42.624;23.386;2022-10-26T02:57:22;94606.34;;;12.49;100.00
7918;BME280;4004;42.624;23.386;2022-10-26T02:59:51;94608.69;;;12.51;100.00
7918;BME280;4004;42.624;23.386;2022-10-26T03:02:19;94607.41;;;12.44;100.00
7918;BME280;4004;42.624;23.386;2022-10-26T03:04:49;94609.00;;;12.46;100.00
7918;BME280;4004;42.624;23.386;2022-10-26T03:07:20;94613.66;;;12.49;100.00
7918;BME280;4004;42.624;23.386;2022-10-26T03:09:47;94615.94;;;12.47;100.00
7918;BME280;4004;42.624;23.386;2022-10-26T03:12:13;94621.97;;;12.40;100.00
7918;BME280;4004;42.624;23.386;2022-10-26T03:14:40;94625.44;;;12.40;100.00
7918;BME280;4004;42.624;23.386;2022-10-26T03:17:07;94632.19;;;12.31;100.00
7918;BME280;4004;42.624;23.386;2022-10-26T03:19:34;94631.41;;;12.30;100.00
7918;BME280;4004;42.624;23.386;2022-10-26T03:22:02;94625.09;;;12.42;100.00
7918;BME280;4004;42.624;23.386;2022-10-26T03:24:29;94627.59;;;12.51;98.63
7918;BME280;4004;42.624;23.386;2022-10-26T03:26:55;94643.53;;;12.40;99.54
7918;BME280;4004;42.624;23.386;2022-10-26T03:29:22;94638.88;;;12.37;99.63
7918;BME280;4004;42.624;23.386;2022-10-26T03:31:49;94640.63;;;12.29;100.00
7918;BME280;4004;42.624;23.386;2022-10-26T03:34:18;94642.09;;;12.27;100.00
7918;BME280;4004;42.624;23.386;2022-10-26T03:36:45;94639.22;;;12.35;100.00
7918;BME280;4004;42.624;23.386;2022-10-26T03:39:13;94643.91;;;12.38;100.00
7918;BME280;4004;42.624;23.386;2022-10-26T03:41:40;94650.50;;;12.41;100.00
7918;BME280;4004;42.624;23.386;2022-10-26T03:44:07;94639.63;;;12.37;100.00
7918;BME280;4004;42.624;23.386;2022-10-26T03:46:33;94649.38;;;12.42;100.00
7918;BME280;4004;42.624;23.386;2022-10-26T03:49:00;94635.19;;;12.45;100.00
7918;BME280;4004;42.624;23.386;2022-10-26T03:51:27;94639.88;;;12.48;100.00
7918;BME280;4004;42.624;23.386;2022-10-26T03:53:54;94625.53;;;12.44;100.00
7918;BME280;4004;42.624;23.386;2022-10-26T03:56:22;94630.63;;;12.49;100.00
7918;BME280;4004;42.624;23.386;2022-10-26T03:58:48;94637.25;;;12.52;100.00
7918;BME280;4004;42.624;23.386;2022-10-26T04:01:15;94640.50;;;12.41;100.00
7918;BME280;4004;42.624;23.386;2022-10-26T04:03:42;94641.63;;;12.40;100.00
7918;BME280;4004;42.624;23.386;2022-10-26T04:06:09;94639.53;;;12.50;100.00
7918;BME280;4004;42.624;23.386;2022-10-26T04:08:35;94644.06;;;12.65;100.00
7918;BME280;4004;42.624;23.386;2022-10-26T04:11:02;94638.16;;;12.59;100.00
7918;BME280;4004;42.624;23.386;2022-10-26T04:13:30;94650.09;;;12.58;100.00
7918;BME280;4004;42.624;23.386;2022-10-26T04:15:57;94606.97;;;12.03;100.00
7918;BME280;4004;42.624;23.386;2022-10-26T04:18:24;94652.34;;;12.37;100.00
7918;BME280;4004;42.624;23.386;2022-10-26T04:20:51;94647.72;;;12.37;100.00
7918;BME280;4004;42.624;23.386;2022-10-26T04:23:18;94645.97;;;12.45;100.00
7918;BME280;4004;42.624;23.386;2022-10-26T04:25:45;94648.53;;;12.57;100.00
7918;BME280;4004;42.624;23.386;2022-10-26T04:28:12;94645.47;;;12.59;100.00
7918;BME280;4004;42.624;23.386;2022-10-26T04:30:41;94636.66;;;12.42;100.00
7918;BME280;4004;42.624;23.386;2022-10-26T04:33:08;94648.28;;;12.47;100.00
7918;BME280;4004;42.624;23.386;2022-10-26T04:35:35;94639.78;;;12.44;100.00
7918;BME280;4004;42.624;23.386;2022-10-26T04:38:05;94647.88;;;12.44;100.00
7918;BME280;4004;42.624;23.386;2022-10-26T04:40:33;94649.03;;;12.43;100.00
7918;BME280;4004;42.624;23.386;2022-10-26T04:43:00;94646.47;;;12.51;100.00
7918;BME280;4004;42.624;23.386;2022-10-26T04:45:27;94658.44;;;12.53;100.00
7918;BME280;4004;42.624;23.386;2022-10-26T04:48:00;94654.63;;;12.54;100.00
7918;BME280;4004;42.624;23.386;2022-10-26T04:50:27;94652.78;;;12.58;100.00
7918;BME280;4004;42.624;23.386;2022-10-26T04:52:54;94652.78;;;12.58;100.00
7918;BME280;4004;42.624;23.386;2022-10-26T04:55:20;94657.59;;;12.49;100.00
7918;BME280;4004;42.624;23.386;2022-10-26T04:57:47;94661.16;;;12.53;100.00
7918;BME280;4004;42.624;23.386;2022-10-26T05:00:14;94661.78;;;12.47;100.00
7918;BME280;4004;42.624;23.386;2022-10-26T05:02:41;94670.00;;;12.54;100.00
7918;BME280;4004;42.624;23.386;2022-10-26T05:05:09;94674.88;;;12.64;100.00
7918;BME280;4004;42.624;23.386;2022-10-26T05:07:36;94671.59;;;12.74;100.00
7918;BME280;4004;42.624;23.386;2022-10-26T05:10:04;94677.69;;;12.91;100.00
7918;BME280;4004;42.624;23.386;2022-10-26T05:12:31;94681.94;;;13.11;100.00
7918;BME280;4004;42.624;23.386;2022-10-26T05:14:58;94671.00;;;13.23;100.00
7918;BME280;4004;42.624;23.386;2022-10-26T05:17:24;94668.69;;;13.45;100.00
7918;BME280;4004;42.624;23.386;2022-10-26T05:19:51;94678.00;;;13.71;100.00
7918;BME280;4004;42.624;23.386;2022-10-26T05:22:21;94677.88;;;13.86;100.00
7918;BME280;4004;42.624;23.386;2022-10-26T05:24:49;94678.03;;;13.97;100.00
7918;BME280;4004;42.624;23.386;2022-10-26T05:27:16;94684.31;;;14.05;99.19
7918;BME280;4004;42.624;23.386;2022-10-26T05:29:42;94689.78;;;14.08;97.73
7918;BME280;4004;42.624;23.386;2022-10-26T05:32:09;94688.13;;;14.27;95.70
7918;BME280;4004;42.624;23.386;2022-10-26T05:34:36;94697.84;;;14.55;94.28
7918;BME280;4004;42.624;23.386;2022-10-26T05:37:03;94697.78;;;14.81;91.18
7918;BME280;4004;42.624;23.386;2022-10-26T05:39:31;94705.84;;;15.08;88.53
7918;BME280;4004;42.624;23.386;2022-10-26T05:41:57;94703.00;;;15.31;86.36
7918;BME280;4004;42.624;23.386;2022-10-26T05:44:24;94717.19;;;15.54;83.86
7918;BME280;4004;42.624;23.386;2022-10-26T05:46:51;94718.44;;;15.64;81.41
7918;BME280;4004;42.624;23.386;2022-10-26T05:49:18;94714.56;;;15.65;79.98
7918;BME280;4004;42.624;23.386;2022-10-26T05:51:45;94725.97;;;15.82;79.42
7918;BME280;4004;42.624;23.386;2022-10-26T05:54:11;94718.41;;;16.02;77.64
7918;BME280;4004;42.624;23.386;2022-10-26T05:56:40;94727.97;;;16.40;75.66
7918;BME280;4004;42.624;23.386;2022-10-26T05:59:11;94738.66;;;16.70;74.31
7918;BME280;4004;42.624;23.386;2022-10-26T06:01:49;94724.09;;;17.00;71.94
7918;BME280;4004;42.624;23.386;2022-10-26T06:04:28;94741.69;;;17.31;68.92
7918;BME280;4004;42.624;23.386;2022-10-26T06:06:57;94739.41;;;17.44;66.83
7918;BME280;4004;42.624;23.386;2022-10-26T06:09:25;94744.06;;;17.51;66.33
7918;BME280;4004;42.624;23.386;2022-10-26T06:11:54;94749.53;;;17.54;66.35
7918;BME280;4004;42.624;23.386;2022-10-26T06:14:21;94753.44;;;17.71;64.99
7918;BME280;4004;42.624;23.386;2022-10-26T06:17:00;94757.03;;;18.08;63.70
7918;BME280;4004;42.624;23.386;2022-10-26T06:19:40;94762.88;;;18.38;62.43
7918;BME280;4004;42.624;23.386;2022-10-26T06:22:21;94765.97;;;18.73;61.12
7918;BME280;4004;42.624;23.386;2022-10-26T06:24:59;94760.44;;;19.16;59.16
7918;BME280;4004;42.624;23.386;2022-10-26T06:27:37;94762.69;;;19.32;57.33
7918;BME280;4004;42.624;23.386;2022-10-26T06:30:08;94760.00;;;19.28;57.96
7918;BME280;4004;42.624;23.386;2022-10-26T06:32:36;94768.84;;;19.61;57.02
7918;BME280;4004;42.624;23.386;2022-10-26T06:35:16;94765.56;;;19.95;56.49
7918;BME280;4004;42.624;23.386;2022-10-26T06:37:46;94758.59;;;20.39;55.79
7918;BME280;4004;42.624;23.386;2022-10-26T06:40:14;94764.28;;;20.62;54.84
7918;BME280;4004;42.624;23.386;2022-10-26T06:42:43;94765.50;;;20.99;54.21
7918;BME280;4004;42.624;23.386;2022-10-26T06:45:12;94768.69;;;21.28;52.48
7918;BME280;4004;42.624;23.386;2022-10-26T06:47:44;94769.63;;;21.15;52.91
7918;BME280;4004;42.624;23.386;2022-10-26T06:50:32;94764.75;;;21.29;52.83
7918;BME280;4004;42.624;23.386;2022-10-26T06:53:10;94766.41;;;21.58;50.96
7918;BME280;4004;42.624;23.386;2022-10-26T06:55:42;94770.56;;;21.69;49.97
7918;BME280;4004;42.624;23.386;2022-10-26T06:58:14;94770.50;;;21.73;50.01
7918;BME280;4004;42.624;23.386;2022-10-26T07:00:44;94769.28;;;21.78;50.23
7918;BME280;4004;42.624;23.386;2022-10-26T07:03:12;94773.66;;;21.99;49.91
7918;BME280;4004;42.624;23.386;2022-10-26T07:05:38;94775.00;;;22.14;49.67
7918;BME280;4004;42.624;23.386;2022-10-26T07:08:05;94769.91;;;22.43;49.21
7918;BME280;4004;42.624;23.386;2022-10-26T07:10:32;94784.03;;;22.65;48.47
7918;BME280;4004;42.624;23.386;2022-10-26T07:13:03;94783.34;;;22.34;48.68
7918;BME280;4004;42.624;23.386;2022-10-26T07:15:31;94783.56;;;22.20;48.87
7918;BME280;4004;42.624;23.386;2022-10-26T07:17:58;94780.06;;;21.61;50.63
7918;BME280;4004;42.624;23.386;2022-10-26T07:20:25;94779.13;;;21.71;50.54
7918;BME280;4004;42.624;23.386;2022-10-26T07:22:52;94778.53;;;21.87;50.39
7918;BME280;4004;42.624;23.386;2022-10-26T07:25:19;94780.09;;;22.15;50.06
7918;BME280;4004;42.624;23.386;2022-10-26T07:27:46;94779.59;;;22.24;49.26
7918;BME280;4004;42.624;23.386;2022-10-26T07:30:13;94771.88;;;21.88;49.76
7918;BME280;4004;42.624;23.386;2022-10-26T07:32:42;94778.88;;;21.89;50.20
7918;BME280;4004;42.624;23.386;2022-10-26T07:35:09;94771.63;;;22.06;49.90
7918;BME280;4004;42.624;23.386;2022-10-26T07:37:36;94769.41;;;22.25;49.10
7918;BME280;4004;42.624;23.386;2022-10-26T07:40:04;94772.03;;;22.32;48.50
7918;BME280;4004;42.624;23.386;2022-10-26T07:42:31;94768.78;;;22.13;49.06
7918;BME280;4004;42.624;23.386;2022-10-26T07:44:57;94769.84;;;22.23;48.82
7918;BME280;4004;42.624;23.386;2022-10-26T07:47:24;94781.22;;;22.45;48.42
7918;BME280;4004;42.624;23.386;2022-10-26T07:49:52;94768.53;;;22.31;48.38
7918;BME280;4004;42.624;23.386;2022-10-26T07:52:19;94767.16;;;22.16;48.84
7918;BME280;4004;42.624;23.386;2022-10-26T07:54:46;94766.22;;;22.30;48.73
7918;BME280;4004;42.624;23.386;2022-10-26T07:57:14;94765.25;;;22.40;47.92
7918;BME280;4004;42.624;23.386;2022-10-26T07:59:41;94776.22;;;22.40;47.77
7918;BME280;4004;42.624;23.386;2022-10-26T08:02:08;94773.88;;;22.11;48.22
7918;BME280;4004;42.624;23.386;2022-10-26T08:04:35;94755.75;;;21.94;48.74
7918;BME280;4004;42.624;23.386;2022-10-26T08:07:03;94758.81;;;22.00;48.67
7918;BME280;4004;42.624;23.386;2022-10-26T08:09:30;94766.81;;;22.14;48.42
7918;BME280;4004;42.624;23.386;2022-10-26T08:11:56;94770.41;;;22.07;48.32
7918;BME280;4004;42.624;23.386;2022-10-26T08:14:23;94766.41;;;21.88;49.02
7918;BME280;4004;42.624;23.386;2022-10-26T08:16:50;94771.16;;;21.53;50.03
7918;BME280;4004;42.624;23.386;2022-10-26T08:19:17;94767.44;;;21.37;50.21
7918;BME280;4004;42.624;23.386;2022-10-26T08:21:43;94762.66;;;21.10;51.15
7918;BME280;4004;42.624;23.386;2022-10-26T08:24:11;94762.66;;;21.10;51.26
7918;BME280;4004;42.624;23.386;2022-10-26T08:26:38;94761.34;;;21.22;50.98
7918;BME280;4004;42.624;23.386;2022-10-26T08:29:05;94765.31;;;21.17;50.96
7918;BME280;4004;42.624;23.386;2022-10-26T08:31:32;94758.97;;;21.24;50.69
7918;BME280;4004;42.624;23.386;2022-10-26T08:33:59;94761.09;;;21.09;50.99
7918;BME280;4004;42.624;23.386;2022-10-26T08:36:27;94754.69;;;20.85;51.67
7918;BME280;4004;42.624;23.386;2022-10-26T08:38:53;94760.97;;;20.82;52.13
7918;BME280;4004;42.624;23.386;2022-10-26T08:41:30;94758.63;;;20.84;52.09
7918;BME280;4004;42.624;23.386;2022-10-26T08:44:03;94752.69;;;20.89;51.88
7918;BME280;4004;42.624;23.386;2022-10-26T08:46:34;94754.91;;;20.63;52.12
7918;BME280;4004;42.624;23.386;2022-10-26T08:49:10;94751.13;;;20.43;52.62
7918;BME280;4004;42.624;23.386;2022-10-26T08:51:41;94758.94;;;20.44;51.90
7918;BME280;4004;42.624;23.386;2022-10-26T08:54:12;94762.00;;;20.57;51.29
7918;BME280;4004;42.624;23.386;2022-10-26T08:56:43;94757.84;;;20.35;52.43
7918;BME280;4004;42.624;23.386;2022-10-26T08:59:29;94757.25;;;20.09;53.71
7918;BME280;4004;42.624;23.386;2022-10-26T09:01:57;94758.50;;;19.97;53.44
7918;BME280;4004;42.624;23.386;2022-10-26T09:04:27;94758.47;;;20.01;53.45
7918;BME280;4004;42.624;23.386;2022-10-26T09:07:01;94761.44;;;20.21;51.76
7918;BME280;4004;42.624;23.386;2022-10-26T09:09:40;94758.31;;;20.22;50.16
7918;BME280;4004;42.624;23.386;2022-10-26T09:12:19;94766.94;;;20.17;49.72
7918;BME280;4004;42.624;23.386;2022-10-26T09:15:01;94765.75;;;20.22;49.44
7918;BME280;4004;42.624;23.386;2022-10-26T09:17:37;94763.03;;;20.22;49.70
7918;BME280;4004;42.624;23.386;2022-10-26T09:20:27;94758.22;;;20.37;50.08
7918;BME280;4004;42.624;23.386;2022-10-26T09:23:01;94757.50;;;20.29;49.86
7918;BME280;4004;42.624;23.386;2022-10-26T09:25:37;94755.97;;;20.24;50.00
7918;BME280;4004;42.624;23.386;2022-10-26T09:28:12;94755.59;;;20.22;48.57
7918;BME280;4004;42.624;23.386;2022-10-26T09:30:42;94754.81;;;20.25;48.52
7918;BME280;4004;42.624;23.386;2022-10-26T09:33:13;94758.31;;;20.22;50.17
7918;BME280;4004;42.624;23.386;2022-10-26T09:35:43;94759.13;;;20.19;50.15
7918;BME280;4004;42.624;23.386;2022-10-26T09:38:15;94762.38;;;20.03;50.89
7918;BME280;4004;42.624;23.386;2022-10-26T09:40:49;94754.19;;;20.03;50.10
7918;BME280;4004;42.624;23.386;2022-10-26T09:43:24;94751.91;;;19.95;49.71
7918;BME280;4004;42.624;23.386;2022-10-26T09:45:52;94745.19;;;20.10;49.53
7918;BME280;4004;42.624;23.386;2022-10-26T09:48:24;94756.16;;;19.96;50.88
7918;BME280;4004;42.624;23.386;2022-10-26T09:50:52;94747.97;;;19.96;51.61
7918;BME280;4004;42.624;23.386;2022-10-26T09:53:21;94750.31;;;19.97;51.81
7918;BME280;4004;42.624;23.386;2022-10-26T09:55:58;94746.06;;;19.89;51.79
7918;BME280;4004;42.624;23.386;2022-10-26T09:58:30;94746.88;;;19.86;51.37
7918;BME280;4004;42.624;23.386;2022-10-26T10:00:58;94745.75;;;19.76;50.19
7918;BME280;4004;42.624;23.386;2022-10-26T10:03:26;94746.94;;;19.75;50.34
7918;BME280;4004;42.624;23.386;2022-10-26T10:06:13;94725.94;;;19.72;50.54
7918;BME280;4004;42.624;23.386;2022-10-26T10:08:41;94732.50;;;19.82;51.36
7918;BME280;4004;42.624;23.386;2022-10-26T10:11:09;94739.09;;;19.84;51.37
7918;BME280;4004;42.624;23.386;2022-10-26T10:13:39;94730.97;;;19.77;51.11
7918;BME280;4004;42.624;23.386;2022-10-26T10:16:10;94727.03;;;19.78;51.03
7918;BME280;4004;42.624;23.386;2022-10-26T10:18:39;94722.72;;;19.81;51.38
7918;BME280;4004;42.624;23.386;2022-10-26T10:21:06;94729.00;;;19.81;51.12
7918;BME280;4004;42.624;23.386;2022-10-26T10:23:36;94726.22;;;19.85;51.02
7918;BME280;4004;42.624;23.386;2022-10-26T10:26:05;94725.56;;;19.70;51.25
7918;BME280;4004;42.624;23.386;2022-10-26T10:28:33;94722.81;;;19.70;50.68
7918;BME280;4004;42.624;23.386;2022-10-26T10:31:03;94719.31;;;19.62;51.26
7918;BME280;4004;42.624;23.386;2022-10-26T10:33:38;94722.47;;;19.57;50.66
7918;BME280;4004;42.624;23.386;2022-10-26T10:36:08;94709.28;;;19.49;50.91
7918;BME280;4004;42.624;23.386;2022-10-26T10:38:38;94711.56;;;19.54;50.78
7918;BME280;4004;42.624;23.386;2022-10-26T10:41:17;94711.16;;;19.59;50.86
7918;BME280;4004;42.624;23.386;2022-10-26T10:43:51;94709.19;;;19.63;50.32
7918;BME280;4004;42.624;23.386;2022-10-26T10:46:23;94707.63;;;19.69;50.11
7918;BME280;4004;42.624;23.386;2022-10-26T10:48:54;94704.09;;;19.65;49.67
7918;BME280;4004;42.624;23.386;2022-10-26T10:51:26;94707.22;;;19.67;49.89
7918;BME280;4004;42.624;23.386;2022-10-26T10:53:53;94712.66;;;19.74;49.76
7918;BME280;4004;42.624;23.386;2022-10-26T10:56:39;94690.84;;;19.67;50.18
7918;BME280;4004;42.624;23.386;2022-10-26T10:59:25;94696.31;;;19.71;50.12
7918;BME280;4004;42.624;23.386;2022-10-26T11:02:11;94679.19;;;19.70;49.84
7918;BME280;4004;42.624;23.386;2022-10-26T11:04:59;94689.66;;;19.75;49.96
7918;BME280;4004;42.624;23.386;2022-10-26T11:07:43;94688.44;;;19.83;49.58
7918;BME280;4004;42.624;23.386;2022-10-26T11:10:14;94679.44;;;19.86;49.67
7918;BME280;4004;42.624;23.386;2022-10-26T11:12:47;94682.16;;;19.86;49.71
7918;BME280;4004;42.624;23.386;2022-10-26T11:15:18;94679.00;;;19.95;49.59
7918;BME280;4004;42.624;23.386;2022-10-26T11:17:52;94678.19;;;19.98;49.55
7918;BME280;4004;42.624;23.386;2022-10-26T11:20:23;94679.69;;;20.03;49.23
7918;BME280;4004;42.624;23.386;2022-10-26T11:23:02;94684.78;;;20.01;49.38
7918;BME280;4004;42.624;23.386;2022-10-26T11:25:34;94674.19;;;20.10;49.31
7918;BME280;4004;42.624;23.386;2022-10-26T11:28:05;94673.44;;;20.06;49.89
7918;BME280;4004;42.624;23.386;2022-10-26T11:30:41;94671.50;;;20.03;50.50
7918;BME280;4004;42.624;23.386;2022-10-26T11:33:16;94679.25;;;20.12;50.43
7918;BME280;4004;42.624;23.386;2022-10-26T11:35:50;94675.66;;;20.18;50.37
7918;BME280;4004;42.624;23.386;2022-10-26T11:38:23;94667.09;;;20.20;50.40
7918;BME280;4004;42.624;23.386;2022-10-26T11:40:55;94671.00;;;20.19;50.26
7918;BME280;4004;42.624;23.386;2022-10-26T11:43:29;94663.88;;;20.28;50.14
7918;BME280;4004;42.624;23.386;2022-10-26T11:46:03;94668.59;;;20.28;50.31
7918;BME280;4004;42.624;23.386;2022-10-26T11:48:38;94663.81;;;20.36;50.18
7918;BME280;4004;42.624;23.386;2022-10-26T11:51:13;94670.09;;;20.33;50.11
7918;BME280;4004;42.624;23.386;2022-10-26T11:53:43;94664.50;;;20.47;49.15
7918;BME280;4004;42.624;23.386;2022-10-26T11:56:14;94656.75;;;20.42;49.38
7918;BME280;4004;42.624;23.386;2022-10-26T11:58:44;94667.75;;;20.35;49.08
7918;BME280;4004;42.624;23.386;2022-10-26T12:01:13;94648.63;;;20.35;49.18
7918;BME280;4004;42.624;23.386;2022-10-26T12:03:44;94661.38;;;20.45;49.13
7918;BME280;4004;42.624;23.386;2022-10-26T12:06:14;94663.25;;;20.55;48.24
7918;BME280;4004;42.624;23.386;2022-10-26T12:08:47;94652.03;;;20.46;48.22
7918;BME280;4004;42.624;23.386;2022-10-26T12:11:31;94654.38;;;20.44;48.16
7918;BME280;4004;42.624;23.386;2022-10-26T12:14:03;94657.03;;;20.51;47.12
7918;BME280;4004;42.624;23.386;2022-10-26T12:16:43;94645.38;;;20.47;46.68
7918;BME280;4004;42.624;23.386;2022-10-26T12:19:20;94650.06;;;20.46;46.66
7918;BME280;4004;42.624;23.386;2022-10-26T12:21:49;94649.28;;;20.46;47.00
7918;BME280;4004;42.624;23.386;2022-10-26T12:24:28;94652.66;;;20.61;46.32
7918;BME280;4004;42.624;23.386;2022-10-26T12:26:58;94655.06;;;20.59;46.27
7918;BME280;4004;42.624;23.386;2022-10-26T12:29:37;94658.38;;;20.74;44.86
7918;BME280;4004;42.624;23.386;2022-10-26T12:35:38;94647.53;;;20.66;44.13
7918;BME280;4004;42.624;23.386;2022-10-26T12:41:24;94647.94;;;20.65;43.49
7918;BME280;4004;42.624;23.386;2022-10-26T12:43:57;94648.03;;;20.58;42.88
7918;BME280;4004;42.624;23.386;2022-10-26T12:46:37;94656.59;;;20.56;42.94
7918;BME280;4004;42.624;23.386;2022-10-26T12:52:32;94648.78;;;20.58;42.43
7918;BME280;4004;42.624;23.386;2022-10-26T12:58:37;94648.38;;;20.63;42.09
7918;BME280;4004;42.624;23.386;2022-10-26T13:04:39;94651.03;;;20.67;41.33
7918;BME280;4004;42.624;23.386;2022-10-26T13:07:19;94638.59;;;20.62;41.16
7918;BME280;4004;42.624;23.386;2022-10-26T13:10:00;94652.97;;;20.70;40.93
7918;BME280;4004;42.624;23.386;2022-10-26T13:12:36;94640.94;;;20.64;41.16
7918;BME280;4004;42.624;23.386;2022-10-26T13:15:17;94658.50;;;20.63;41.62
7918;BME280;4004;42.624;23.386;2022-10-26T13:17:52;94655.38;;;20.64;41.63
7918;BME280;4004;42.624;23.386;2022-10-26T13:20:20;94656.88;;;20.69;40.93
7918;BME280;4004;42.624;23.386;2022-10-26T13:22:47;94655.66;;;20.74;40.70
7918;BME280;4004;42.624;23.386;2022-10-26T13:25:22;94664.31;;;20.68;40.72
7918;BME280;4004;42.624;23.386;2022-10-26T13:28:02;94657.28;;;20.67;40.72
7918;BME280;4004;42.624;23.386;2022-10-26T13:30:43;94667.00;;;20.72;40.52
7918;BME280;4004;42.624;23.386;2022-10-26T13:33:16;94666.59;;;20.74;39.48
7918;BME280;4004;42.624;23.386;2022-10-26T13:35:45;94662.72;;;20.71;39.51
7918;BME280;4004;42.624;23.386;2022-10-26T13:38:17;94659.66;;;20.65;38.68
7918;BME280;4004;42.624;23.386;2022-10-26T13:40:47;94662.31;;;20.73;38.55
7918;BME280;4004;42.624;23.386;2022-10-26T13:43:19;94669.69;;;20.76;38.60